Time;durP1;ratioP1;P1;durP2;ratioP2;P2;SDS_P1;SDS_P2;PMS_P1;PMS_P2;Temp;Humidity;BMP_temperature;BMP_pressure;BME280_temperature;BME280_humidity;BME280_pressure;Samples;Min_cycle;Max_cycle;Signal;HPM_P1;HPM_P2
2022/01/03 00:03:06;;;;;;;5.20;3.30;;;9.80;1.00;;;;;;8461723;27;20189;-68
2022/01/03 00:07:07;;;;;;;5.70;3.90;;;9.70;1.00;;;;;;8468181;27;20189;-69
2022/01/03 00:11:15;;;;;;;6.23;3.50;;;9.70;1.00;;;;;;8461632;27;20189;-71
2022/01/03 00:15:18;;;;;;;9.33;3.67;;;9.60;1.00;;;;;;8466779;27;20215;-67
2022/01/03 00:19:19;;;;;;;8.30;3.40;;;9.60;1.00;;;;;;8458030;27;20204;-69
2022/01/03 00:23:24;;;;;;;9.40;3.50;;;9.50;1.00;;;;;;8463871;27;20215;-66
2022/01/03 00:27:31;;;;;;;6.17;3.80;;;9.50;1.00;;;;;;8463630;27;20219;-69
2022/01/03 00:31:37;;;;;;;5.07;3.77;;;9.50;1.00;;;;;;8485378;27;20184;-70
2022/01/03 00:35:41;;;;;;;7.37;3.33;;;9.60;1.00;;;;;;8461007;27;20239;-69
2022/01/03 00:39:42;;;;;;;5.93;3.53;;;9.70;1.00;;;;;;8464482;27;20185;-67
2022/01/03 00:43:44;;;;;;;6.50;3.17;;;9.70;1.00;;;;;;8448750;28;20202;-68
2022/01/03 00:47:47;;;;;;;6.07;3.47;;;9.70;1.00;;;;;;8459794;27;20197;-68
2022/01/03 00:51:48;;;;;;;5.10;3.10;;;9.60;1.00;;;;;;8462492;27;20180;-68
2022/01/03 00:56:09;;;;;;;5.27;3.23;;;9.50;1.00;;;;;;8473208;27;20207;-69
2022/01/03 01:00:10;;;;;;;3.97;3.00;;;9.40;1.00;;;;;;8459841;27;20186;-70
2022/01/03 01:04:13;;;;;;;6.77;3.40;;;9.40;1.00;;;;;;8465611;27;20194;-68
2022/01/03 01:08:26;;;;;;;6.03;3.13;;;9.30;1.00;;;;;;8453164;27;20176;-69
2022/01/03 01:12:30;;;;;;;5.90;3.67;;;9.30;1.00;;;;;;8460073;27;20184;-68
2022/01/03 01:16:31;;;;;;;5.70;3.10;;;9.20;1.00;;;;;;8454391;27;20324;-69
2022/01/03 01:20:35;;;;;;;4.67;2.80;;;9.20;1.00;;;;;;8461710;27;20428;-68
2022/01/03 01:24:47;;;;;;;3.70;2.70;;;9.30;1.00;;;;;;8470311;27;20188;-67
2022/01/03 01:28:47;;;;;;;10.43;4.30;;;9.20;1.00;;;;;;8461969;27;21840;-68
2022/01/03 01:32:58;;;;;;;4.70;3.33;;;9.20;1.00;;;;;;8480898;27;20208;-68
2022/01/03 01:37:00;;;;;;;4.20;2.83;;;9.30;1.00;;;;;;8464962;27;20208;-65
2022/01/03 01:41:08;;;;;;;5.13;2.73;;;9.40;1.00;;;;;;8464527;27;20206;-68
2022/01/03 01:45:09;;;;;;;4.33;2.80;;;9.50;1.00;;;;;;8450210;27;20245;-68
2022/01/03 01:49:17;;;;;;;4.47;2.60;;;9.60;1.00;;;;;;8457376;27;20196;-70
2022/01/03 01:53:25;;;;;;;4.17;2.63;;;9.70;1.00;;;;;;8454479;27;20192;-67
2022/01/03 01:58:24;;;;;;;5.47;2.90;;;9.80;1.00;;;;;;8466396;27;20219;-68
2022/01/03 02:02:35;;;;;;;2.77;2.00;;;9.80;1.00;;;;;;8374226;27;20191;-68
2022/01/03 02:06:47;;;;;;;5.83;2.70;;;9.90;1.00;;;;;;8473262;27;20193;-69
2022/01/03 02:11:14;;;;;;;3.00;2.00;;;10.00;99.90;;;;;;8467811;27;20179;-70
2022/01/03 02:15:17;;;;;;;4.30;1.97;;;9.80;99.90;;;;;;8468035;27;20219;-67
2022/01/03 02:19:21;;;;;;;3.20;2.03;;;9.70;99.90;;;;;;8470623;27;20243;-68
2022/01/03 02:23:22;;;;;;;5.40;2.47;;;9.60;99.90;;;;;;8451219;27;20184;-67
2022/01/03 02:27:23;;;;;;;7.80;4.03;;;9.50;99.90;;;;;;8461632;27;20184;-68
2022/01/03 02:31:24;;;;;;;6.97;3.73;;;9.40;99.90;;;;;;8463266;27;20405;-68
2022/01/03 02:35:26;;;;;;;5.37;3.13;;;9.30;99.90;;;;;;8456720;28;20226;-68
2022/01/03 02:39:27;;;;;;;5.67;3.67;;;9.20;99.90;;;;;;8463048;28;20233;-68
2022/01/03 02:43:29;;;;;;;6.90;3.43;;;9.10;99.90;;;;;;8462935;28;20184;-68
2022/01/03 02:47:30;;;;;;;4.33;2.83;;;9.00;99.90;;;;;;8454779;28;20188;-68
2022/01/03 02:51:32;;;;;;;6.13;3.23;;;9.00;99.90;;;;;;8453841;28;20184;-68
2022/01/03 02:55:33;;;;;;;9.47;4.83;;;9.00;99.90;;;;;;8462799;28;20229;-68
2022/01/03 02:59:34;;;;;;;8.90;4.93;;;9.00;99.90;;;;;;8467120;28;20564;-68
2022/01/03 03:03:34;;;;;;;5.03;3.23;;;8.90;99.90;;;;;;8455863;28;20180;-68
2022/01/03 03:07:36;;;;;;;6.07;3.70;;;8.90;99.90;;;;;;8453997;28;20180;-68
2022/01/03 03:11:38;;;;;;;4.90;3.37;;;8.90;99.90;;;;;;8464855;28;20188;-68
2022/01/03 03:15:39;;;;;;;4.83;2.80;;;8.80;99.90;;;;;;8459744;28;20207;-67
2022/01/03 03:20:12;;;;;;;3.63;2.47;;;8.90;99.90;;;;;;8455405;28;20186;-69
2022/01/03 03:24:13;;;;;;;5.07;2.70;;;8.90;99.90;;;;;;8461309;27;20191;-68
2022/01/03 03:28:15;;;;;;;3.57;1.97;;;9.10;99.90;;;;;;8476865;27;20282;-70
2022/01/03 03:32:18;;;;;;;4.77;2.17;;;9.10;99.90;;;;;;8458933;27;20192;-69
2022/01/03 03:36:19;;;;;;;2.70;1.80;;;9.20;99.90;;;;;;8464344;27;20295;-69
2022/01/03 03:40:20;;;;;;;3.00;1.97;;;9.20;99.90;;;;;;8475118;27;20190;-66
2022/01/03 03:44:20;;;;;;;3.37;1.30;;;9.30;99.90;;;;;;8465757;27;20231;-68
2022/01/03 03:48:21;;;;;;;2.20;1.50;;;9.30;99.90;;;;;;8473053;27;20169;-69
2022/01/03 03:52:22;;;;;;;2.70;1.77;;;9.30;99.90;;;;;;8478615;27;20187;-67
2022/01/03 03:56:23;;;;;;;3.27;1.40;;;9.30;99.90;;;;;;8478860;27;20243;-69
2022/01/03 04:00:25;;;;;;;2.50;1.57;;;9.20;99.90;;;;;;8463312;27;20176;-71
2022/01/03 04:04:25;;;;;;;2.83;1.30;;;9.20;99.90;;;;;;8455940;27;20180;-68
2022/01/03 04:08:26;;;;;;;3.20;1.10;;;9.10;99.90;;;;;;8459906;27;20199;-69
2022/01/03 04:12:27;;;;;;;2.40;1.23;;;9.10;99.90;;;;;;8464614;27;20281;-68
2022/01/03 04:16:28;;;;;;;2.93;0.90;;;9.10;99.90;;;;;;8456341;27;20209;-67
2022/01/03 04:20:29;;;;;;;1.23;0.90;;;9.10;99.90;;;;;;8469085;27;20183;-70
2022/01/03 04:24:30;;;;;;;1.77;0.90;;;9.10;99.90;;;;;;8464697;27;20187;-70
2022/01/03 04:28:31;;;;;;;1.23;0.80;;;9.10;99.90;;;;;;8462678;27;20175;-70
2022/01/03 04:32:32;;;;;;;1.13;0.67;;;9.10;99.90;;;;;;8465337;27;20176;-68
2022/01/03 04:36:33;;;;;;;1.00;0.60;;;9.00;99.90;;;;;;8461331;27;20231;-69
2022/01/03 04:40:33;;;;;;;1.37;0.80;;;9.00;99.90;;;;;;8462634;27;20182;-67
2022/01/03 04:44:34;;;;;;;1.10;0.50;;;8.90;99.90;;;;;;8464795;27;20239;-70
2022/01/03 04:48:36;;;;;;;0.97;0.60;;;8.80;99.90;;;;;;8456364;27;20216;-69
2022/01/03 04:52:37;;;;;;;0.50;0.37;;;8.70;99.90;;;;;;8463602;27;20213;-70
2022/01/03 04:56:38;;;;;;;2.47;0.40;;;8.70;99.90;;;;;;8467366;27;20302;-71
2022/01/03 05:00:39;;;;;;;0.50;0.30;;;8.70;99.90;;;;;;8471107;27;20184;-69
2022/01/03 05:04:40;;;;;;;1.97;0.60;;;8.70;99.90;;;;;;8469195;27;20229;-69
2022/01/03 05:08:41;;;;;;;1.10;0.40;;;8.80;99.90;;;;;;8463555;27;20241;-69
2022/01/03 05:12:42;;;;;;;0.50;0.30;;;8.80;99.90;;;;;;8468671;27;20247;-69
2022/01/03 05:16:42;;;;;;;0.70;0.60;;;8.90;99.90;;;;;;8462723;27;20276;-70
2022/01/03 05:20:43;;;;;;;2.20;0.53;;;9.00;99.90;;;;;;8468133;27;20172;-70
2022/01/03 05:24:44;;;;;;;2.43;0.67;;;9.10;99.90;;;;;;8471692;27;20199;-69
2022/01/03 05:28:47;;;;;;;1.23;0.40;;;9.10;99.90;;;;;;8467517;27;20269;-67
2022/01/03 05:32:48;;;;;;;1.23;0.50;;;9.10;99.90;;;;;;8464495;27;20186;-70
2022/01/03 05:36:49;;;;;;;0.40;0.30;;;9.10;99.90;;;;;;8466122;27;20206;-68
2022/01/03 05:40:50;;;;;;;0.73;0.40;;;9.10;99.90;;;;;;8478072;27;20176;-71
2022/01/03 05:44:51;;;;;;;1.73;0.30;;;9.20;99.90;;;;;;8468146;27;20184;-69
2022/01/03 05:48:52;;;;;;;0.97;0.30;;;9.20;99.90;;;;;;8463675;27;20258;-68
2022/01/03 05:52:53;;;;;;;0.90;0.40;;;9.10;99.90;;;;;;8460243;27;20180;-68
2022/01/03 05:56:54;;;;;;;2.47;0.50;;;9.00;99.90;;;;;;8462669;27;20208;-70
2022/01/03 06:00:55;;;;;;;3.27;0.60;;;9.10;99.90;;;;;;8462950;27;20184;-70
2022/01/03 06:04:59;;;;;;;0.60;0.50;;;9.10;90.20;;;;;;8454664;27;20179;-68
2022/01/03 06:09:00;;;;;;;1.43;1.27;;;9.10;81.00;;;;;;8459608;27;20525;-67
2022/01/03 06:13:00;;;;;;;5.37;1.50;;;9.20;14.80;;;;;;8462783;27;20179;-70
2022/01/03 06:17:01;;;;;;;1.27;0.50;;;9.20;1.00;;;;;;8452025;27;20303;-68
2022/01/03 06:21:02;;;;;;;1.37;0.50;;;9.20;1.00;;;;;;8460054;27;20181;-70
2022/01/03 06:25:03;;;;;;;0.70;0.40;;;9.30;99.90;;;;;;8466003;27;20653;-68
2022/01/03 06:29:04;;;;;;;2.53;0.70;;;9.20;99.90;;;;;;8470303;27;20186;-70
2022/01/03 06:33:06;;;;;;;1.50;0.70;;;9.10;99.90;;;;;;8462760;27;20200;-68
2022/01/03 06:37:07;;;;;;;0.77;0.50;;;9.10;99.90;;;;;;8455650;28;20208;-67
2022/01/03 06:41:08;;;;;;;2.70;0.70;;;9.00;1.00;;;;;;8460705;28;20171;-66
2022/01/03 06:45:09;;;;;;;1.30;0.50;;;9.00;1.00;;;;;;8466037;28;20174;-68
2022/01/03 06:49:10;;;;;;;3.83;0.90;;;9.00;1.00;;;;;;8461513;28;20186;-68
2022/01/03 06:53:11;;;;;;;2.10;0.77;;;9.10;1.00;;;;;;8464916;28;20183;-68
2022/01/03 06:57:12;;;;;;;4.57;0.90;;;9.20;1.00;;;;;;8466431;27;20318;-70
2022/01/03 07:01:13;;;;;;;2.73;0.50;;;9.30;99.90;;;;;;8463312;27;20179;-69
2022/01/03 07:05:17;;;;;;;2.43;0.70;;;9.40;99.90;;;;;;8467346;27;20183;-68
2022/01/03 07:09:18;;;;;;;3.50;0.70;;;9.50;99.90;;;;;;8470573;27;20210;-68
2022/01/03 07:13:19;;;;;;;3.57;0.70;;;9.50;99.90;;;;;;8470629;27;20286;-68
2022/01/03 07:21:39;;;;;;;2.83;0.90;;;9.30;46.10;;;;;;8456591;27;20244;-68
2022/01/03 07:25:40;;;;;;;4.17;0.87;;;9.50;99.90;;;;;;8456083;27;20179;-69
2022/01/03 07:29:41;;;;;;;4.20;0.90;;;9.50;1.00;;;;;;8463432;27;20419;-68
2022/01/03 07:33:43;;;;;;;2.80;0.90;;;9.60;1.00;;;;;;8449182;27;20206;-68
2022/01/03 07:37:44;;;;;;;3.97;0.80;;;9.80;1.00;;;;;;8457474;27;20203;-67
2022/01/03 07:41:45;;;;;;;1.77;0.83;;;9.80;1.00;;;;;;8467881;27;21200;-67
2022/01/03 07:45:46;;;;;;;3.27;1.07;;;9.40;1.00;;;;;;8467955;27;20186;-68
2022/01/03 07:49:47;;;;;;;0.90;0.50;;;9.20;1.00;;;;;;8452096;27;20192;-68
2022/01/03 07:53:48;;;;;;;2.03;0.70;;;9.10;99.90;;;;;;8463659;27;20194;-67
2022/01/03 07:57:49;;;;;;;3.43;1.00;;;9.00;99.90;;;;;;8462905;27;20278;-68
2022/01/03 08:01:50;;;;;;;3.50;0.77;;;8.90;99.90;;;;;;8466625;27;21234;-68
2022/01/03 08:05:50;;;;;;;2.47;0.83;;;8.70;99.90;;;;;;8461193;27;20192;-67
2022/01/03 08:09:51;;;;;;;2.40;0.97;;;8.90;99.90;;;;;;8460597;27;20219;-66
2022/01/03 08:13:52;;;;;;;2.87;0.97;;;9.00;99.90;;;;;;8455905;27;20196;-67
2022/01/03 08:17:53;;;;;;;2.77;0.67;;;8.90;99.90;;;;;;8454818;27;20211;-75
2022/01/03 08:21:54;;;;;;;3.70;0.97;;;8.80;99.90;;;;;;8450211;27;20182;-65
2022/01/03 08:25:55;;;;;;;5.30;1.00;;;8.80;99.90;;;;;;8462364;27;20197;-67
2022/01/03 08:29:56;;;;;;;6.33;1.07;;;9.00;97.00;;;;;;8467959;27;20213;-67
2022/01/03 08:33:56;;;;;;;3.03;0.70;;;9.00;20.50;;;;;;8453890;27;20218;-67
2022/01/03 08:37:57;;;;;;;3.37;0.70;;;9.00;43.40;;;;;;8468174;27;20218;-66
2022/01/03 08:41:58;;;;;;;2.70;0.73;;;9.30;99.90;;;;;;8471871;27;20188;-66
2022/01/03 08:45:59;;;;;;;2.77;1.00;;;9.30;99.90;;;;;;8455516;27;20257;-67
2022/01/03 08:50:00;;;;;;;4.87;0.90;;;9.20;1.00;;;;;;8451202;27;20191;-68
2022/01/03 08:54:03;;;;;;;3.70;1.10;;;9.20;99.90;;;;;;8451669;27;20327;-66
2022/01/03 08:58:04;;;;;;;5.17;1.13;;;9.50;99.90;;;;;;8448019;27;20495;-67
2022/01/03 09:02:05;;;;;;;3.90;0.80;;;9.70;85.80;;;;;;8444042;27;20188;-68
2022/01/03 09:06:06;;;;;;;3.10;1.23;;;9.90;82.00;;;;;;8447460;27;20183;-68
2022/01/03 09:10:07;;;;;;;3.67;1.07;;;10.10;99.90;;;;;;8455817;27;20200;-67
2022/01/03 09:14:08;;;;;;;4.13;1.17;;;10.20;99.90;;;;;;8462150;27;20188;-67
2022/01/03 09:18:09;;;;;;;3.43;1.10;;;10.10;1.00;;;;;;8458118;27;20216;-68
2022/01/03 09:22:17;;;;;;;3.17;1.17;;;10.00;99.90;;;;;;8452092;27;20185;-68
2022/01/03 09:30:38;;;;;;;4.73;1.00;;;10.20;99.90;;;;;;8466408;27;20235;-68
2022/01/03 09:34:39;;;;;;;2.97;0.90;;;10.20;1.00;;;;;;8458847;27;20188;-67
2022/01/03 09:38:39;;;;;;;3.80;1.20;;;10.20;1.10;;;;;;8457551;27;20222;-67
2022/01/03 09:42:42;;;;;;;4.03;1.27;;;10.40;99.90;;;;;;8452928;27;20188;-67
2022/01/03 09:46:43;;;;;;;3.37;0.97;;;10.30;1.00;;;;;;8468982;27;20195;-66
2022/01/03 09:50:44;;;;;;;4.43;0.80;;;10.40;1.00;;;;;;8454835;27;20195;-67
2022/01/03 09:54:46;;;;;;;4.13;1.10;;;10.50;99.90;;;;;;8456829;27;20192;-69
2022/01/03 09:58:47;;;;;;;10.63;4.93;;;10.60;1.00;;;;;;8464273;27;20185;-67
2022/01/03 10:02:50;;;;;;;4.50;1.20;;;10.40;17.80;;;;;;8451020;27;20258;-66
2022/01/03 10:06:51;;;;;;;4.50;1.60;;;10.40;99.90;;;;;;8470369;27;20175;-67
2022/01/03 10:10:52;;;;;;;4.53;2.30;;;10.50;18.00;;;;;;8455875;27;20242;-67
2022/01/03 10:14:53;;;;;;;11.67;4.00;;;10.50;1.00;;;;;;8458681;27;20226;-66
2022/01/03 10:18:54;;;;;;;4.47;2.43;;;11.10;1.00;;;;;;8448117;27;20252;-67
2022/01/03 10:23:11;;;;;;;15.30;5.67;;;11.10;99.90;;;;;;8449099;27;20184;-67
2022/01/03 10:27:12;;;;;;;19.13;9.77;;;10.90;99.90;;;;;;8454906;27;20188;-66
2022/01/03 10:31:19;;;;;;;7.60;4.20;;;10.80;1.00;;;;;;8452346;27;20274;-67
2022/01/03 10:35:20;;;;;;;8.47;3.93;;;10.80;1.00;;;;;;8449075;27;20219;-66
2022/01/03 10:39:22;;;;;;;5.30;1.77;;;10.90;99.90;;;;;;8462680;28;20414;-66
2022/01/03 10:43:23;;;;;;;7.20;1.97;;;10.90;99.90;;;;;;8446038;28;20176;-67
2022/01/03 10:47:32;;;;;;;4.80;1.10;;;10.90;99.90;;;;;;8450120;28;20245;-64
2022/01/03 10:51:33;;;;;;;8.40;1.90;;;10.90;99.90;;;;;;8448370;28;20197;-67
2022/01/03 10:55:34;;;;;;;3.87;1.60;;;10.90;99.90;;;;;;8452354;28;20411;-65
2022/01/03 10:59:36;;;;;;;5.23;1.00;;;10.90;99.90;;;;;;8449171;28;20182;-66
2022/01/03 11:03:43;;;;;;;3.97;1.23;;;10.90;99.90;;;;;;8451451;28;20585;-68
2022/01/03 11:11:48;;;;;;;8.37;1.30;;;11.10;99.90;;;;;;8445117;28;20299;-66
2022/01/03 11:15:50;;;;;;;7.50;1.23;;;10.90;99.90;;;;;;8450966;28;20223;-66
2022/01/03 11:19:59;;;;;;;6.13;1.10;;;11.00;99.90;;;;;;8447447;28;20179;-67
2022/01/03 11:24:06;;;;;;;3.90;1.37;;;10.90;99.90;;;;;;8456598;28;20273;-65
2022/01/03 11:28:07;;;;;;;5.00;1.10;;;11.10;99.90;;;;;;8468538;28;20189;-66
2022/01/03 11:32:08;;;;;;;4.20;1.20;;;11.10;1.00;;;;;;8459005;28;20190;-65
2022/01/03 11:36:09;;;;;;;2.83;1.20;;;11.10;33.10;;;;;;8464283;28;20218;-68
2022/01/03 11:40:11;;;;;;;5.47;1.00;;;11.10;28.40;;;;;;8451969;28;20181;-66
2022/01/03 11:44:15;;;;;;;5.60;1.20;;;11.10;99.90;;;;;;8458501;27;20176;-65
2022/01/03 11:48:16;;;;;;;4.10;1.30;;;11.10;1.00;;;;;;8469257;27;20205;-64
2022/01/03 11:52:17;;;;;;;5.83;1.13;;;11.00;99.90;;;;;;8464388;27;20179;-66
2022/01/03 11:56:23;;;;;;;4.00;1.00;;;10.90;99.90;;;;;;8454740;27;20211;-67
2022/01/03 12:04:58;;;;;;;4.30;1.13;;;10.90;1.00;;;;;;8476972;27;20231;-66
2022/01/03 12:09:03;;;;;;;6.27;1.40;;;10.90;99.90;;;;;;8452461;27;20211;-65
2022/01/03 12:13:04;;;;;;;4.87;1.20;;;11.00;99.90;;;;;;8459654;27;20182;-65
2022/01/03 12:17:07;;;;;;;9.80;1.27;;;11.00;35.50;;;;;;8462347;27;20210;-65
2022/01/03 12:21:08;;;;;;;2.07;1.10;;;10.90;99.90;;;;;;8445145;27;20193;-65
2022/01/03 12:25:32;;;;;;;4.80;1.30;;;11.00;99.90;;;;;;8460957;27;20266;-70
2022/01/03 12:30:13;;;;;;;4.63;1.13;;;11.00;36.30;;;;;;8464776;27;20193;-69
2022/01/03 12:34:18;;;;;;;4.90;1.27;;;10.80;93.90;;;;;;8448045;27;20215;-67
2022/01/03 12:38:23;;;;;;;4.73;1.47;;;10.70;99.90;;;;;;8480650;27;20256;-70
2022/01/03 12:42:45;;;;;;;5.33;1.37;;;10.50;99.90;;;;;;8459599;27;20303;-70
2022/01/03 12:47:24;;;;;;;5.87;1.50;;;10.40;76.10;;;;;;8464213;27;20190;-68
2022/01/03 12:51:37;;;;;;;8.10;1.50;;;10.50;99.90;;;;;;8471596;27;20191;-67
2022/01/03 12:55:38;;;;;;;4.83;1.30;;;10.70;1.00;;;;;;8456824;27;20218;-71
2022/01/03 12:59:41;;;;;;;6.03;1.50;;;10.60;1.00;;;;;;8444908;27;20190;-71
2022/01/03 13:03:43;;;;;;;5.10;1.37;;;10.80;1.00;;;;;;8465401;27;20256;-69
2022/01/03 13:07:47;;;;;;;4.30;1.03;;;10.70;1.00;;;;;;8472433;27;20182;-68
2022/01/03 13:11:50;;;;;;;6.87;1.43;;;10.70;1.00;;;;;;8449423;27;20193;-71
2022/01/03 13:15:55;;;;;;;6.10;1.53;;;10.60;1.00;;;;;;8450692;27;20202;-70
2022/01/03 13:19:59;;;;;;;12.50;1.90;;;10.70;1.00;;;;;;8452773;27;20205;-71
2022/01/03 13:24:03;;;;;;;2.90;1.57;;;10.80;1.00;;;;;;8455225;27;20233;-71
2022/01/03 13:28:11;;;;;;;7.73;2.63;;;10.80;14.90;;;;;;8458672;27;20207;-69
2022/01/03 13:32:42;;;;;;;9.97;1.77;;;10.80;1.00;;;;;;8467334;27;20179;-69
2022/01/03 13:36:45;;;;;;;6.43;1.43;;;10.80;1.00;;;;;;8455795;27;20235;-70
2022/01/03 13:40:46;;;;;;;7.77;2.03;;;10.60;27.00;;;;;;8457665;27;20179;-67
2022/01/03 13:53:11;;;;;;;9.10;1.63;;;10.50;99.90;;;;;;8459229;27;20289;-70
2022/01/03 13:57:18;;;;;;;10.03;4.70;;;10.50;1.00;;;;;;8465858;27;20213;-70
2022/01/03 14:01:19;;;;;;;8.73;3.40;;;10.50;1.00;;;;;;8451954;27;20184;-70
2022/01/03 14:05:20;;;;;;;3.97;2.20;;;10.50;27.40;;;;;;8460198;27;20195;-71
2022/01/03 14:09:21;;;;;;;6.93;1.90;;;10.60;1.00;;;;;;8454082;27;20209;-69
2022/01/03 14:13:23;;;;;;;7.90;4.60;;;10.60;1.00;;;;;;8467831;27;20206;-69
2022/01/03 14:17:25;;;;;;;10.77;7.20;;;10.50;1.00;;;;;;8469555;27;20216;-69
2022/01/03 14:21:27;;;;;;;11.97;5.83;;;10.50;1.00;;;;;;8455700;27;20636;-70
2022/01/03 14:25:28;;;;;;;6.43;2.33;;;10.40;1.00;;;;;;8460574;27;20187;-71
2022/01/03 14:29:38;;;;;;;7.97;2.30;;;10.50;1.00;;;;;;8453502;28;20201;-68
2022/01/03 14:33:39;;;;;;;3.70;1.50;;;10.50;99.90;;;;;;8459997;27;20200;-69
2022/01/03 14:37:41;;;;;;;7.67;2.90;;;10.40;1.00;;;;;;8456598;28;20242;-69
2022/01/03 14:41:42;;;;;;;14.30;4.33;;;10.40;99.90;;;;;;8459941;28;20193;-71
2022/01/03 14:45:42;;;;;;;10.03;2.97;;;10.20;1.00;;;;;;8464311;28;20207;-70
2022/01/03 14:50:02;;;;;;;24.77;9.33;;;10.10;1.00;;;;;;8456373;28;20454;-71
2022/01/03 14:54:17;;;;;;;11.10;3.70;;;10.00;1.00;;;;;;8443593;28;20211;-70
2022/01/03 14:58:21;;;;;;;5.43;1.27;;;9.90;1.00;;;;;;8450775;28;20215;-69
2022/01/03 15:02:22;;;;;;;3.17;0.97;;;9.70;1.00;;;;;;8458757;28;20209;-70
2022/01/03 15:06:23;;;;;;;6.10;1.17;;;9.60;1.00;;;;;;8464235;27;20317;-68
2022/01/03 15:10:24;;;;;;;21.93;5.67;;;9.40;1.00;;;;;;8449095;28;20202;-70
2022/01/03 15:14:25;;;;;;;3.30;1.57;;;9.30;1.00;;;;;;8455835;28;20195;-68
2022/01/03 15:18:26;;;;;;;8.63;2.37;;;9.10;40.10;;;;;;8460163;27;20220;-71
2022/01/03 15:22:27;;;;;;;29.23;9.37;;;9.10;99.90;;;;;;8461405;27;20194;-68
2022/01/03 15:26:28;;;;;;;9.33;3.30;;;9.10;99.90;;;;;;8463909;27;20260;-69
2022/01/03 15:30:37;;;;;;;14.50;4.57;;;9.10;99.90;;;;;;8466943;27;20200;-70
2022/01/03 15:34:37;;;;;;;6.40;1.97;;;9.10;99.90;;;;;;8459913;27;20201;-71
2022/01/03 15:38:38;;;;;;;6.47;2.67;;;9.10;99.90;;;;;;8463148;27;20249;-69
2022/01/03 15:42:40;;;;;;;8.37;2.27;;;9.00;38.80;;;;;;8460931;27;20230;-71
2022/01/03 15:46:41;;;;;;;11.30;5.10;;;9.00;99.90;;;;;;8473156;27;20211;-70
2022/01/03 15:50:42;;;;;;;5.73;2.03;;;9.00;99.90;;;;;;8467306;27;20207;-69
2022/01/03 15:54:42;;;;;;;7.27;1.30;;;9.00;99.90;;;;;;8464457;27;20252;-70
2022/01/03 15:58:43;;;;;;;6.97;1.03;;;9.00;1.00;;;;;;8466528;27;20236;-71
2022/01/03 16:02:44;;;;;;;2.10;0.87;;;9.00;1.00;;;;;;8466157;27;20175;-72
2022/01/03 16:06:45;;;;;;;1.33;0.70;;;9.00;1.00;;;;;;8465166;27;20191;-71
2022/01/03 16:10:46;;;;;;;2.67;1.20;;;9.00;99.90;;;;;;8458742;27;20193;-70
2022/01/03 16:14:47;;;;;;;4.93;3.50;;;9.10;99.90;;;;;;8466047;27;20184;-69
2022/01/03 16:18:48;;;;;;;5.57;2.17;;;9.20;99.90;;;;;;8460840;27;20192;-73
2022/01/03 16:22:49;;;;;;;4.90;1.83;;;9.20;1.00;;;;;;8460731;27;20183;-71
2022/01/03 16:26:51;;;;;;;4.03;1.63;;;9.10;1.00;;;;;;8462423;27;20287;-72
2022/01/03 16:30:53;;;;;;;5.00;1.70;;;9.00;99.60;;;;;;8446977;28;20195;-70
2022/01/03 16:34:54;;;;;;;6.43;3.43;;;8.90;99.90;;;;;;8454088;27;20203;-70
2022/01/03 16:38:55;;;;;;;7.73;3.23;;;8.80;19.70;;;;;;8470672;27;20187;-70
2022/01/03 16:42:56;;;;;;;6.47;2.97;;;8.70;1.00;;;;;;8477188;27;20183;-71
2022/01/03 16:46:57;;;;;;;7.37;4.00;;;8.60;99.90;;;;;;8465101;27;20197;-70
2022/01/03 16:50:58;;;;;;;7.93;3.40;;;8.60;99.90;;;;;;8456659;27;20183;-72
2022/01/03 16:54:59;;;;;;;5.33;3.53;;;8.50;84.10;;;;;;8464706;27;20191;-71
2022/01/03 16:59:00;;;;;;;8.23;3.90;;;8.40;99.90;;;;;;8463521;27;20229;-70
2022/01/03 17:03:01;;;;;;;7.73;3.23;;;8.30;99.90;;;;;;8468717;27;20191;-71
2022/01/03 17:07:02;;;;;;;7.27;3.00;;;8.30;1.00;;;;;;8458514;27;20188;-71
2022/01/03 17:11:02;;;;;;;6.47;2.83;;;8.20;99.90;;;;;;8458612;27;20211;-71
2022/01/03 17:15:05;;;;;;;7.63;2.47;;;8.10;99.90;;;;;;8461769;27;20310;-70
2022/01/03 17:19:06;;;;;;;5.97;2.40;;;8.10;1.00;;;;;;8461628;27;20176;-69
2022/01/03 17:23:08;;;;;;;4.33;2.40;;;8.20;1.00;;;;;;8459278;27;20176;-71
2022/01/03 17:27:10;;;;;;;4.03;2.07;;;8.30;1.00;;;;;;8468673;27;20184;-71
2022/01/03 17:31:13;;;;;;;4.30;1.57;;;8.30;99.90;;;;;;8463433;27;20290;-69
2022/01/03 17:35:13;;;;;;;4.50;1.80;;;8.40;99.90;;;;;;8456691;27;20242;-70
2022/01/03 17:39:14;;;;;;;3.70;1.97;;;8.30;99.90;;;;;;8459913;27;20241;-71
2022/01/03 17:43:15;;;;;;;4.70;1.73;;;8.30;99.90;;;;;;8448099;27;20215;-69
2022/01/03 17:47:20;;;;;;;4.40;2.10;;;8.30;99.90;;;;;;8454898;27;20275;-67
2022/01/03 17:51:21;;;;;;;7.23;2.70;;;8.20;99.90;;;;;;8463462;27;20219;-72
2022/01/03 17:55:22;;;;;;;5.37;2.40;;;8.20;99.90;;;;;;8451919;27;20223;-71
2022/01/03 17:59:23;;;;;;;5.93;2.00;;;8.20;99.90;;;;;;8457559;27;20220;-70
2022/01/03 18:03:24;;;;;;;4.60;2.27;;;8.30;99.90;;;;;;8463664;27;20172;-67
2022/01/03 18:07:26;;;;;;;9.47;3.17;;;8.40;99.90;;;;;;8474521;27;20195;-71
2022/01/03 18:11:27;;;;;;;6.80;3.10;;;8.40;99.90;;;;;;8454690;27;20192;-69
2022/01/03 18:15:28;;;;;;;10.60;3.23;;;8.40;99.90;;;;;;8456077;27;20643;-69
2022/01/03 18:19:30;;;;;;;7.30;2.77;;;8.30;99.90;;;;;;8473925;27;20229;-71
2022/01/03 18:23:30;;;;;;;6.70;3.93;;;8.30;1.00;;;;;;8458039;27;20180;-70
2022/01/03 18:27:33;;;;;;;6.03;3.03;;;8.40;1.00;;;;;;8474890;27;20245;-71
2022/01/03 18:31:36;;;;;;;7.13;2.60;;;8.40;90.60;;;;;;8444431;27;20199;-69
2022/01/03 18:35:37;;;;;;;8.30;3.37;;;8.40;99.90;;;;;;8455621;27;20296;-70
2022/01/03 18:39:39;;;;;;;7.10;3.63;;;8.40;1.00;;;;;;8443972;28;20187;-71
2022/01/03 18:43:41;;;;;;;11.90;3.87;;;8.40;99.90;;;;;;8460306;28;20240;-71
2022/01/03 18:47:42;;;;;;;9.83;3.90;;;8.50;1.00;;;;;;8440057;28;20194;-71
2022/01/03 18:51:43;;;;;;;6.03;3.10;;;8.50;1.00;;;;;;8446624;28;20187;-71
2022/01/03 18:55:46;;;;;;;8.40;5.00;;;8.50;99.90;;;;;;8457653;27;20207;-70
2022/01/03 18:59:48;;;;;;;7.10;3.83;;;8.50;99.90;;;;;;8460187;27;20176;-71
2022/01/03 19:03:49;;;;;;;7.00;2.90;;;8.40;99.90;;;;;;8460383;27;20266;-71
2022/01/03 19:07:50;;;;;;;4.70;2.77;;;8.40;1.00;;;;;;8451719;27;20198;-71
2022/01/03 19:11:52;;;;;;;6.53;2.97;;;8.50;1.00;;;;;;8466175;27;20217;-70
2022/01/03 19:15:53;;;;;;;5.47;2.47;;;8.50;99.90;;;;;;8461359;27;20227;-70
2022/01/03 19:19:54;;;;;;;6.00;2.77;;;8.50;99.10;;;;;;8458418;27;20192;-71
2022/01/03 19:23:55;;;;;;;6.53;3.13;;;8.50;1.00;;;;;;8474383;27;20196;-68
2022/01/03 19:27:56;;;;;;;7.47;3.03;;;8.50;99.90;;;;;;8459707;27;20183;-70
2022/01/03 19:31:59;;;;;;;5.00;2.43;;;8.40;99.90;;;;;;8459354;27;20232;-71
2022/01/03 19:40:23;;;;;;;6.20;2.77;;;8.20;99.90;;;;;;8449267;28;20260;-70
2022/01/03 19:44:25;;;;;;;8.77;2.40;;;8.10;1.00;;;;;;8457296;27;20198;-68
2022/01/03 19:48:26;;;;;;;6.20;2.50;;;8.00;99.90;;;;;;8459658;27;20193;-68
2022/01/03 19:52:28;;;;;;;4.43;2.23;;;7.90;99.90;;;;;;8457595;27;20196;-71
2022/01/03 19:56:29;;;;;;;6.33;2.43;;;7.90;99.90;;;;;;8463875;27;20236;-68
2022/01/03 20:00:30;;;;;;;9.00;5.17;;;7.90;88.70;;;;;;8463464;27;20287;-69
2022/01/03 20:04:31;;;;;;;6.23;3.70;;;7.90;1.00;;;;;;8460343;27;20267;-67
2022/01/03 20:08:32;;;;;;;8.60;4.83;;;7.90;99.90;;;;;;8464359;27;20199;-71
2022/01/03 20:12:34;;;;;;;10.10;5.93;;;7.80;1.00;;;;;;8452803;28;20241;-70
2022/01/03 20:16:36;;;;;;;6.37;3.20;;;7.80;99.90;;;;;;8456998;27;20321;-71
2022/01/03 20:20:39;;;;;;;9.10;4.50;;;7.80;99.90;;;;;;8452746;27;20188;-72
2022/01/03 20:24:42;;;;;;;8.60;4.73;;;7.90;99.90;;;;;;8465029;27;20184;-71
2022/01/03 20:28:43;;;;;;;16.73;8.97;;;8.00;1.00;;;;;;8454607;27;20550;-70
2022/01/03 20:32:45;;;;;;;13.83;8.30;;;8.00;99.90;;;;;;8452739;27;20183;-70
2022/01/03 20:36:46;;;;;;;10.90;5.50;;;8.00;1.00;;;;;;8450766;27;20218;-70
2022/01/03 20:40:47;;;;;;;8.33;5.03;;;8.00;1.00;;;;;;8452975;27;20215;-69
2022/01/03 20:44:48;;;;;;;11.43;4.60;;;7.90;1.00;;;;;;8459061;27;20198;-71
2022/01/03 20:48:48;;;;;;;6.57;4.40;;;7.80;1.00;;;;;;8492221;27;20204;-71
2022/01/03 20:52:50;;;;;;;7.37;4.33;;;7.70;99.90;;;;;;8470437;27;20423;-71
2022/01/03 20:56:53;;;;;;;7.93;3.70;;;7.60;99.90;;;;;;8468297;27;20232;-70
2022/01/03 21:00:54;;;;;;;5.87;3.60;;;7.60;99.90;;;;;;8456315;27;20185;-69
2022/01/03 21:04:59;;;;;;;10.73;5.03;;;7.60;99.90;;;;;;8453430;27;20185;-71
2022/01/03 21:09:00;;;;;;;7.97;4.30;;;7.60;1.00;;;;;;8459455;28;20200;-67
2022/01/03 21:13:02;;;;;;;6.83;3.20;;;7.60;1.00;;;;;;8456741;27;20194;-71
2022/01/03 21:17:03;;;;;;;6.53;3.10;;;7.70;3.70;;;;;;8465223;27;20250;-71
2022/01/03 21:21:04;;;;;;;6.50;3.70;;;7.80;13.00;;;;;;8457926;27;20187;-68
2022/01/03 21:25:07;;;;;;;9.37;2.80;;;7.90;99.90;;;;;;8472864;27;20265;-71
2022/01/03 21:29:08;;;;;;;6.27;2.60;;;8.00;1.00;;;;;;8473349;27;20249;-71
2022/01/03 21:33:09;;;;;;;6.17;2.60;;;8.00;22.50;;;;;;8465485;27;20331;-72
2022/01/03 21:37:10;;;;;;;4.13;2.27;;;8.10;1.00;;;;;;8469251;27;20215;-70
2022/01/03 21:41:12;;;;;;;8.03;2.37;;;8.20;99.90;;;;;;8476485;27;20231;-70
2022/01/03 21:45:13;;;;;;;4.77;2.20;;;8.30;1.00;;;;;;8455706;27;20184;-70
2022/01/03 21:49:14;;;;;;;7.30;2.37;;;8.30;99.90;;;;;;8462151;27;20228;-70
2022/01/03 21:53:15;;;;;;;5.10;2.17;;;8.30;1.00;;;;;;8456175;27;20187;-69